Time;durP1;ratioP1;P1;durP2;ratioP2;P2;SDS_P1;SDS_P2;PMS_P1;PMS_P2;Temp;Humidity;BMP_temperature;BMP_pressure;BME280_temperature;BME280_humidity;BME280_pressure;Samples;Min_cycle;Max_cycle;Signal;HPM_P1;HPM_P2
2022/03/21 00:01:18;;;;;;;183.20;93.20;;;;;;;-0.95;31.70;101388.42;106038;1273;99385;-68
2022/03/21 00:03:47;;;;;;;180.70;93.80;;;;;;;-0.99;31.83;101386.46;106144;1273;99339;-69
2022/03/21 00:06:15;;;;;;;186.40;93.90;;;;;;;-1.03;31.65;101385.91;106161;1273;113749;-68
2022/03/21 00:08:44;;;;;;;191.30;94.50;;;;;;;-1.04;31.65;101385.20;106039;1273;96547;-66
2022/03/21 00:11:13;;;;;;;184.50;90.30;;;;;;;-1.07;31.81;101385.85;106045;1274;108292;-68
2022/03/21 00:13:41;;;;;;;165.40;86.60;;;;;;;-1.11;31.73;101385.11;106002;1274;96641;-68
2022/03/21 00:16:12;;;;;;;178.00;89.00;;;;;;;-1.13;31.79;101383.86;106015;1274;100006;-69
2022/03/21 00:18:41;;;;;;;180.50;90.20;;;;;;;-1.16;32.08;101381.91;106039;1273;113372;-69
2022/03/21 00:21:09;;;;;;;182.40;91.90;;;;;;;-1.16;31.87;101376.16;106003;1274;97753;-69
2022/03/21 00:23:37;;;;;;;168.70;86.80;;;;;;;-1.18;32.08;101373.00;106038;1273;108426;-70
2022/03/21 00:26:05;;;;;;;175.50;88.70;;;;;;;-1.21;32.13;101376.10;106087;1274;96639;-71
2022/03/21 00:28:33;;;;;;;175.00;84.70;;;;;;;-1.24;32.04;101375.38;106156;1273;99241;-67
2022/03/21 00:31:03;;;;;;;174.00;85.60;;;;;;;-1.25;32.62;101375.36;106155;1273;113460;-68
2022/03/21 00:33:31;;;;;;;168.90;86.10;;;;;;;-1.26;32.35;101376.05;106221;1273;99212;-68
2022/03/21 00:36:00;;;;;;;164.20;87.00;;;;;;;-1.27;32.07;101371.49;106189;1273;108170;-68
2022/03/21 00:38:28;;;;;;;167.00;87.10;;;;;;;-1.31;32.51;101373.36;106237;1273;99125;-67
2022/03/21 00:40:57;;;;;;;176.40;88.60;;;;;;;-1.34;32.29;101372.09;106111;1274;99215;-67
2022/03/21 00:43:25;;;;;;;178.90;89.30;;;;;;;-1.37;32.45;101373.10;106210;1273;113409;-68
2022/03/21 00:45:57;;;;;;;177.60;90.80;;;;;;;-1.38;32.54;101375.70;106218;1273;99300;-69
2022/03/21 00:48:27;;;;;;;199.80;94.80;;;;;;;-1.43;32.58;101371.29;106167;1273;106566;-68
2022/03/21 00:50:57;;;;;;;171.40;86.60;;;;;;;-1.46;32.62;101373.52;106100;1273;99437;-69
2022/03/21 00:53:25;;;;;;;182.10;88.40;;;;;;;-1.47;32.78;101372.63;106235;1273;96548;-70
2022/03/21 00:55:54;;;;;;;180.20;90.70;;;;;;;-1.48;32.63;101375.58;105958;1274;113365;-70
2022/03/21 00:58:23;;;;;;;178.40;89.70;;;;;;;-1.50;33.04;101372.41;106106;1274;96539;-69
2022/03/21 01:00:50;;;;;;;176.50;89.00;;;;;;;-1.53;32.75;101369.23;106062;1274;105961;-68
2022/03/21 01:03:19;;;;;;;170.40;87.50;;;;;;;-1.58;32.74;101370.04;106062;1274;96608;-69
2022/03/21 01:05:47;;;;;;;175.20;89.10;;;;;;;-1.59;33.02;101371.58;105992;1274;99202;-69
2022/03/21 01:08:15;;;;;;;173.90;87.10;;;;;;;-1.61;32.82;101371.91;106120;1274;113139;-67
2022/03/21 01:10:43;;;;;;;164.30;81.80;;;;;;;-1.65;32.94;101369.94;106091;1274;97906;-69
2022/03/21 01:13:11;;;;;;;164.30;83.40;;;;;;;-1.69;32.65;101371.80;106080;1274;108366;-68
2022/03/21 01:15:40;;;;;;;161.40;82.50;;;;;;;-1.71;33.08;101371.24;106116;1273;98347;-66
2022/03/21 01:18:08;;;;;;;149.80;78.50;;;;;;;-1.74;33.00;101371.70;106122;1273;99327;-68
2022/03/21 01:20:36;;;;;;;156.80;80.10;;;;;;;-1.75;33.35;101369.95;106127;1273;113349;-69
2022/03/21 01:23:04;;;;;;;162.00;78.30;;;;;;;-1.76;33.17;101369.60;106151;1273;99213;-67
2022/03/21 01:25:32;;;;;;;156.30;78.10;;;;;;;-1.80;32.93;101366.92;106152;1273;108782;-68
2022/03/21 01:27:59;;;;;;;155.40;74.20;;;;;;;-1.82;33.21;101367.60;106118;1274;99299;-67
2022/03/21 01:30:28;;;;;;;139.40;72.70;;;;;;;-1.83;33.05;101365.67;106114;1274;99321;-68
2022/03/21 01:32:56;;;;;;;144.00;72.30;;;;;;;-1.84;33.19;101364.61;106109;1274;114709;-69
2022/03/21 01:35:24;;;;;;;142.50;73.20;;;;;;;-1.84;33.24;101363.39;106116;1274;99270;-65
2022/03/21 01:37:53;;;;;;;136.30;68.70;;;;;;;-1.85;33.57;101360.41;106069;1274;108435;-69
2022/03/21 01:40:21;;;;;;;132.10;66.50;;;;;;;-1.86;33.52;101360.58;106116;1275;99298;-68
2022/03/21 01:42:48;;;;;;;128.20;65.20;;;;;;;-1.87;33.40;101359.17;106105;1274;99204;-68
2022/03/21 01:45:18;;;;;;;130.90;64.90;;;;;;;-1.89;33.76;101356.55;106128;1274;113255;-67
2022/03/21 01:47:46;;;;;;;131.80;65.50;;;;;;;-1.89;33.54;101355.84;106168;1274;99316;-66
2022/03/21 01:50:16;;;;;;;121.00;59.00;;;;;;;-1.91;33.52;101357.55;106109;1274;107731;-67
2022/03/21 01:52:44;;;;;;;111.60;56.00;;;;;;;-1.92;33.71;101357.69;106110;1274;99296;-67
2022/03/21 01:58:02;;;;;;;116.80;58.00;;;;;;;-1.96;33.65;101354.52;106006;1274;112396;-69
2022/03/21 02:00:30;;;;;;;114.90;55.90;;;;;;;-1.99;33.76;101356.20;106037;1273;99104;-69
2022/03/21 02:02:59;;;;;;;107.80;55.20;;;;;;;-2.03;33.42;101360.65;106191;1273;107659;-69
2022/03/21 02:05:28;;;;;;;116.20;56.80;;;;;;;-2.07;33.65;101362.34;106159;1273;99284;-68
2022/03/21 02:07:56;;;;;;;116.80;58.00;;;;;;;-2.09;33.70;101364.23;106214;1273;99305;-69
2022/03/21 02:10:24;;;;;;;107.70;52.30;;;;;;;-2.12;33.75;101365.05;106225;1273;113164;-70
2022/03/21 02:12:51;;;;;;;98.50;48.40;;;;;;;-2.15;33.89;101366.73;106229;1273;99295;-70
2022/03/21 02:15:20;;;;;;;108.70;54.30;;;;;;;-2.18;33.67;101367.37;106170;1273;106854;-68
2022/03/21 02:17:59;;;;;;;106.40;55.70;;;;;;;-2.22;33.56;101366.78;106159;1273;97698;-69
2022/03/21 02:20:31;;;;;;;115.90;57.40;;;;;;;-2.25;33.76;101366.56;106184;1273;99931;-68
2022/03/21 02:23:13;;;;;;;116.80;58.80;;;;;;;-2.27;33.96;101364.98;106125;1273;112380;-69
2022/03/21 02:25:43;;;;;;;122.00;60.60;;;;;;;-2.30;34.06;101363.71;106062;1274;96542;-67
2022/03/21 02:28:17;;;;;;;165.20;73.60;;;;;;;-2.33;33.82;101362.43;106148;1273;107543;-69
2022/03/21 02:30:47;;;;;;;151.60;74.00;;;;;;;-2.34;34.03;101363.63;106111;1273;97598;-70
2022/03/21 02:33:17;;;;;;;166.40;81.30;;;;;;;-2.36;33.57;101363.78;106236;1273;99204;-69
2022/03/21 02:35:48;;;;;;;151.50;72.30;;;;;;;-2.40;33.79;101362.83;106165;1273;114482;-71
2022/03/21 02:38:19;;;;;;;122.40;62.10;;;;;;;-2.46;33.75;101360.48;105980;1274;97693;-69
2022/03/21 02:40:48;;;;;;;121.70;60.20;;;;;;;-2.50;33.85;101364.05;106110;1274;107796;-71
2022/03/21 02:43:17;;;;;;;121.00;60.30;;;;;;;-2.51;34.35;101365.59;106078;1274;99316;-68
2022/03/21 02:45:45;;;;;;;117.70;57.10;;;;;;;-2.50;34.23;101368.73;106163;1274;96619;-71
2022/03/21 02:48:13;;;;;;;126.50;58.40;;;;;;;-2.50;34.44;101376.91;106028;1274;113397;-68
2022/03/21 02:50:55;;;;;;;109.50;56.90;;;;;;;-2.51;34.32;101378.46;106135;1274;99347;-67
2022/03/21 02:53:27;;;;;;;110.50;54.90;;;;;;;-2.52;34.38;101380.35;106174;1274;107720;-67
2022/03/21 02:55:57;;;;;;;107.50;53.60;;;;;;;-2.52;34.45;101381.21;106207;1274;99214;-68
2022/03/21 02:58:25;;;;;;;109.90;51.10;;;;;;;-2.51;34.33;101378.80;106144;1274;99173;-70
2022/03/21 03:01:05;;;;;;;108.10;52.60;;;;;;;-2.52;34.43;101377.39;106057;1274;113584;-72
2022/03/21 03:03:34;;;;;;;106.60;53.90;;;;;;;-2.52;34.56;101378.27;106109;1274;99328;-69
2022/03/21 03:06:03;;;;;;;103.60;50.50;;;;;;;-2.51;34.70;101376.88;106112;1274;107723;-69
2022/03/21 03:08:33;;;;;;;103.90;51.30;;;;;;;-2.51;34.52;101375.49;106154;1274;96676;-69
2022/03/21 03:11:01;;;;;;;106.20;52.30;;;;;;;-2.50;34.69;101379.85;106087;1274;99214;-70
2022/03/21 03:13:30;;;;;;;109.10;52.10;;;;;;;-2.50;34.70;101380.55;106033;1273;113789;-71
2022/03/21 03:15:58;;;;;;;103.90;51.30;;;;;;;-2.50;34.92;101379.68;106195;1274;99204;-71
2022/03/21 03:18:27;;;;;;;105.30;49.90;;;;;;;-2.53;35.02;101380.85;106002;1275;108630;-70
2022/03/21 03:20:57;;;;;;;100.60;51.00;;;;;;;-2.56;34.97;101376.97;105990;1274;96653;-70
2022/03/21 03:23:28;;;;;;;104.70;49.50;;;;;;;-2.60;35.13;101376.56;106076;1274;99202;-70
2022/03/21 03:26:02;;;;;;;96.90;48.40;;;;;;;-2.62;34.98;101376.34;106173;1273;113435;-68
2022/03/21 03:28:31;;;;;;;101.30;49.40;;;;;;;-2.65;35.35;101375.77;106131;1273;96740;-68
2022/03/21 03:31:15;;;;;;;84.30;42.90;;;;;;;-2.69;35.40;101371.35;106028;1274;109007;-68
2022/03/21 03:33:45;;;;;;;79.50;40.10;;;;;;;-2.68;35.27;101376.06;106000;1274;98032;-68
2022/03/21 03:36:16;;;;;;;88.00;41.20;;;;;;;-2.68;35.20;101376.06;105386;1273;945041;-67
2022/03/21 03:38:46;;;;;;;85.90;41.90;;;;;;;-2.67;35.37;101373.29;106114;1275;112852;-68
2022/03/21 03:41:16;;;;;;;82.70;41.00;;;;;;;-2.67;35.56;101372.94;106201;1273;99295;-67
2022/03/21 03:43:45;;;;;;;88.30;42.90;;;;;;;-2.68;35.20;101372.92;106184;1273;107102;-68
2022/03/21 03:46:16;;;;;;;79.40;41.40;;;;;;;-2.69;35.39;101372.56;106074;1273;98344;-69
2022/03/21 03:48:45;;;;;;;88.50;40.30;;;;;;;-2.71;35.46;101373.07;106144;1273;100021;-67
2022/03/21 03:51:14;;;;;;;82.10;42.00;;;;;;;-2.72;35.50;101368.86;106087;1274;112711;-66
2022/03/21 03:53:43;;;;;;;80.10;40.60;;;;;;;-2.73;35.60;101366.23;106211;1273;96703;-67
2022/03/21 03:56:11;;;;;;;80.60;40.10;;;;;;;-2.71;35.64;101369.05;106192;1273;107831;-66
2022/03/21 03:58:40;;;;;;;73.90;38.00;;;;;;;-2.70;35.57;101368.73;106207;1273;99292;-68
2022/03/21 04:01:08;;;;;;;81.30;37.90;;;;;;;-2.69;35.72;101371.70;106230;1273;97672;-65
2022/03/21 04:03:45;;;;;;;80.20;40.70;;;;;;;-2.70;35.71;101372.90;106106;1274;112967;-66
2022/03/21 04:06:17;;;;;;;77.60;39.20;;;;;;;-2.71;35.82;101372.54;106135;1274;99256;-67
2022/03/21 04:08:47;;;;;;;81.30;38.60;;;;;;;-2.72;35.90;101370.96;106058;1274;108379;-67
2022/03/21 04:11:16;;;;;;;78.50;38.40;;;;;;;-2.74;35.87;101368.65;106030;1274;99350;-66
2022/03/21 04:13:46;;;;;;;76.50;36.60;;;;;;;-2.75;35.90;101366.02;106059;1274;99195;-67
2022/03/21 04:16:16;;;;;;;75.90;37.10;;;;;;;-2.76;35.87;101364.44;106023;1274;113479;-67
2022/03/21 04:18:44;;;;;;;74.90;37.00;;;;;;;-2.77;36.04;101366.67;106082;1274;97936;-68
2022/03/21 04:21:28;;;;;;;77.00;38.20;;;;;;;-2.79;36.01;101366.98;106081;1275;108368;-68
2022/03/21 04:23:57;;;;;;;84.80;39.90;;;;;;;-2.79;36.21;101367.16;106112;1273;99292;-68
2022/03/21 04:26:26;;;;;;;75.70;37.70;;;;;;;-2.77;36.28;101369.27;106050;1274;99253;-68
2022/03/21 04:28:55;;;;;;;74.30;35.70;;;;;;;-2.76;36.36;101368.77;106019;1274;113384;-68
2022/03/21 04:31:24;;;;;;;71.90;36.90;;;;;;;-2.77;36.23;101369.97;106169;1274;99205;-68
2022/03/21 04:33:53;;;;;;;80.90;39.10;;;;;;;-2.77;36.10;101372.41;106103;1275;108263;-69
2022/03/21 04:36:20;;;;;;;70.40;36.60;;;;;;;-2.77;36.14;101375.90;106085;1275;99273;-69
2022/03/21 04:38:50;;;;;;;74.40;33.60;;;;;;;-2.76;35.76;101374.34;106005;1275;97696;-68
2022/03/21 04:41:18;;;;;;;72.60;33.60;;;;;;;-2.78;35.79;101371.34;106158;1273;114323;-69
2022/03/21 04:43:46;;;;;;;78.30;36.10;;;;;;;-2.81;36.38;101375.64;106211;1273;99224;-67
2022/03/21 04:46:15;;;;;;;76.30;35.50;;;;;;;-2.79;36.33;101375.85;106199;1273;107988;-65
2022/03/21 04:48:43;;;;;;;66.80;32.20;;;;;;;-2.77;36.16;101375.54;106119;1273;99234;-67
2022/03/21 04:51:10;;;;;;;73.30;36.00;;;;;;;-2.75;36.31;101377.13;106186;1273;99216;-67
2022/03/21 04:53:38;;;;;;;74.40;34.10;;;;;;;-2.73;36.44;101380.14;106194;1273;113362;-70
2022/03/21 04:56:07;;;;;;;93.40;44.40;;;;;;;-2.73;36.22;101377.02;106202;1273;99320;-70
2022/03/21 04:58:34;;;;;;;90.00;42.50;;;;;;;-2.76;36.04;101372.95;106188;1273;108358;-69
2022/03/21 05:01:02;;;;;;;94.90;46.90;;;;;;;-2.77;36.37;101376.20;106170;1273;99221;-68
2022/03/21 05:03:32;;;;;;;93.20;45.50;;;;;;;-2.77;36.39;101379.55;106124;1275;97669;-68
2022/03/21 05:06:01;;;;;;;102.00;47.90;;;;;;;-2.77;36.49;101374.49;106118;1276;112640;-66
2022/03/21 05:08:29;;;;;;;90.60;44.20;;;;;;;-2.75;36.08;101379.05;106133;1273;99379;-65
2022/03/21 05:10:57;;;;;;;91.90;46.60;;;;;;;-2.76;36.06;101379.04;106107;1274;108373;-66
2022/03/21 05:13:25;;;;;;;89.30;46.00;;;;;;;-2.75;36.33;101380.27;106122;1274;99329;-67
2022/03/21 05:15:53;;;;;;;93.90;46.50;;;;;;;-2.76;36.34;101381.98;106111;1276;99287;-66
2022/03/21 05:18:22;;;;;;;101.20;50.60;;;;;;;-2.78;38.18;101384.38;106159;1273;113138;-71
2022/03/21 05:20:50;;;;;;;107.10;53.70;;;;;;;-2.85;36.77;101383.02;106165;1273;98442;-69
2022/03/21 05:31:38;;;;;;;96.40;48.80;;;;;;;-2.83;37.24;101385.15;106028;1273;113260;-68
2022/03/21 05:36:55;;;;;;;92.10;43.00;;;;;;;-2.69;36.73;101383.34;106065;1275;108239;-67
2022/03/21 05:39:24;;;;;;;88.10;41.60;;;;;;;-2.62;36.78;101382.95;106075;1275;99235;-68
2022/03/21 05:41:53;;;;;;;87.80;44.10;;;;;;;-2.54;36.97;101381.70;106137;1274;99216;-68
2022/03/21 05:44:21;;;;;;;90.60;45.60;;;;;;;-2.46;37.20;101385.67;105975;1276;113274;-68
2022/03/21 05:46:51;;;;;;;90.20;44.80;;;;;;;-2.37;37.42;101384.08;106140;1274;99305;-70
2022/03/21 05:49:19;;;;;;;86.40;43.20;;;;;;;-2.29;37.42;101383.52;106194;1273;107597;-68
2022/03/21 05:51:46;;;;;;;92.60;46.70;;;;;;;-2.21;37.64;101384.88;106004;1273;99255;-70
2022/03/21 05:54:14;;;;;;;92.20;44.50;;;;;;;-2.13;37.83;101388.85;106180;1273;99211;-69
2022/03/21 05:56:43;;;;;;;85.20;41.80;;;;;;;-2.05;37.42;101391.05;106089;1273;113244;-68
2022/03/21 06:01:58;;;;;;;75.80;36.70;;;;;;;-1.85;37.33;101394.86;106082;1274;107658;-68
2022/03/21 06:04:27;;;;;;;78.90;38.30;;;;;;;-1.74;37.55;101396.60;106088;1274;98772;-68
2022/03/21 06:06:55;;;;;;;77.90;37.30;;;;;;;-1.65;37.96;101390.83;106143;1273;99154;-70
2022/03/21 06:09:23;;;;;;;84.60;40.00;;;;;;;-1.56;38.08;101395.29;106171;1273;115585;-69
2022/03/21 06:11:51;;;;;;;86.20;43.00;;;;;;;-1.48;38.27;101391.24;106177;1273;99310;-72
2022/03/21 06:14:20;;;;;;;75.00;37.90;;;;;;;-1.40;38.43;101395.88;106104;1274;108346;-71
2022/03/21 06:16:48;;;;;;;67.60;35.50;;;;;;;-1.30;38.43;101398.26;106171;1274;99343;-71
2022/03/21 06:19:18;;;;;;;72.00;35.10;;;;;;;-1.22;38.67;101403.42;106202;1273;99911;-71
2022/03/21 06:21:46;;;;;;;68.60;34.00;;;;;;;-1.14;38.83;101400.56;106063;1274;112737;-70
2022/03/21 06:24:16;;;;;;;62.80;30.20;;;;;;;-1.07;38.29;101398.58;106094;1273;96736;-70
2022/03/21 06:26:44;;;;;;;60.10;30.00;;;;;;;-0.97;38.37;101403.23;106042;1274;107530;-71
2022/03/21 06:29:13;;;;;;;57.50;31.00;;;;;;;-0.86;38.31;101402.30;105992;1275;99243;-71
2022/03/21 06:31:40;;;;;;;54.00;29.20;;;;;;;-0.75;38.28;101401.56;106051;1273;100644;-70
2022/03/21 06:34:08;;;;;;;53.40;27.40;;;;;;;-0.64;38.30;101403.95;105985;1274;112496;-74
2022/03/21 06:36:36;;;;;;;57.70;28.30;;;;;;;-0.51;38.63;101405.83;106127;1273;99325;-70
2022/03/21 06:39:05;;;;;;;52.60;26.90;;;;;;;-0.39;38.71;101404.56;106020;1273;109224;-71
2022/03/21 06:41:33;;;;;;;58.40;26.50;;;;;;;-0.27;38.91;101402.42;105978;1273;99446;-69
2022/03/21 06:44:02;;;;;;;59.70;28.90;;;;;;;-0.15;38.85;101407.22;106076;1273;101026;-69
2022/03/21 06:46:31;;;;;;;58.00;27.30;;;;;;;-0.01;38.88;101407.52;105986;1273;113375;-70
2022/03/21 06:48:59;;;;;;;54.30;26.10;;;;;;;0.12;39.14;101409.73;105869;1274;99072;-71
2022/03/21 06:51:27;;;;;;;50.40;24.60;;;;;;;0.25;39.25;101412.80;106012;1273;108653;-71
2022/03/21 06:53:56;;;;;;;49.20;25.80;;;;;;;0.38;39.34;101412.20;105997;1274;99305;-70
2022/03/21 06:56:23;;;;;;;51.10;25.40;;;;;;;0.52;40.01;101413.33;106012;1273;99233;-70
2022/03/21 06:58:51;;;;;;;52.10;26.10;;;;;;;0.65;39.82;101417.08;106040;1274;112367;-70
2022/03/21 07:01:19;;;;;;;56.00;26.00;;;;;;;0.78;39.88;101419.42;105943;1273;99145;-69
2022/03/21 07:03:47;;;;;;;52.60;26.20;;;;;;;0.91;39.89;101415.29;105983;1272;108819;-71
2022/03/21 07:06:17;;;;;;;55.80;27.80;;;;;;;1.03;39.95;101405.73;106029;1273;97851;-71
2022/03/21 07:08:51;;;;;;;51.20;25.60;;;;;;;1.16;39.99;101410.35;106057;1273;99327;-70
2022/03/21 07:11:21;;;;;;;53.30;25.60;;;;;;;1.29;39.93;101407.05;106027;1273;112751;-70
2022/03/21 07:13:49;;;;;;;46.80;23.30;;;;;;;1.39;40.03;101407.96;106065;1273;99346;-71
2022/03/21 07:16:17;;;;;;;51.10;25.50;;;;;;;1.51;40.16;101407.83;106028;1274;107777;-68
2022/03/21 07:18:47;;;;;;;45.50;23.80;;;;;;;1.63;39.95;101409.95;106015;1273;99325;-70
2022/03/21 07:21:16;;;;;;;47.00;23.50;;;;;;;1.78;40.01;101408.56;106121;1273;99314;-69
2022/03/21 07:23:46;;;;;;;47.00;24.40;;;;;;;1.94;40.32;101407.52;106008;1274;112208;-70
2022/03/21 07:26:14;;;;;;;52.40;25.50;;;;;;;2.07;40.38;101409.46;106022;1274;99287;-70
2022/03/21 07:28:42;;;;;;;53.90;26.40;;;;;;;2.19;40.42;101407.36;106084;1273;107699;-70
2022/03/21 07:31:32;;;;;;;53.20;25.20;;;;;;;2.32;40.43;101405.59;106024;1274;99176;-70
2022/03/21 07:34:00;;;;;;;47.30;25.20;;;;;;;2.43;40.39;101410.14;106151;1273;99326;-70
2022/03/21 07:36:29;;;;;;;52.20;26.50;;;;;;;2.57;40.74;101411.69;106003;1273;112784;-70
2022/03/21 07:38:58;;;;;;;51.50;25.30;;;;;;;2.71;40.62;101413.94;106017;1273;99271;-71
2022/03/21 07:41:27;;;;;;;53.70;27.10;;;;;;;2.84;40.58;101413.55;106110;1274;108358;-70
2022/03/21 07:43:58;;;;;;;43.60;24.40;;;;;;;2.98;40.58;101412.98;105931;1273;97388;-69
2022/03/21 07:49:14;;;;;;;46.80;24.00;;;;;;;3.28;40.58;101413.20;106014;1273;114733;-69
2022/03/21 07:51:43;;;;;;;44.70;22.80;;;;;;;3.46;40.72;101411.19;106111;1273;99236;-67
2022/03/21 07:54:13;;;;;;;47.10;23.30;;;;;;;3.68;40.61;101409.30;105924;1275;107618;-70
2022/03/21 07:56:42;;;;;;;43.70;23.40;;;;;;;3.93;40.64;101409.82;105998;1274;99314;-73
2022/03/21 07:59:10;;;;;;;41.60;20.90;;;;;;;4.18;40.56;101412.61;105975;1274;97617;-72
2022/03/21 08:01:45;;;;;;;34.80;17.60;;;;;;;4.43;40.63;101406.23;105936;1274;112906;-70
2022/03/21 08:04:13;;;;;;;36.50;17.80;;;;;;;4.65;40.59;101407.60;105944;1273;97720;-70
2022/03/21 08:06:41;;;;;;;31.80;16.40;;;;;;;4.88;40.69;101405.76;106023;1274;107720;-71
2022/03/21 08:09:10;;;;;;;38.10;18.30;;;;;;;5.11;40.55;101410.59;105991;1273;99301;-71
2022/03/21 08:11:38;;;;;;;38.50;17.50;;;;;;;5.34;40.42;101404.48;106077;1273;99631;-71
2022/03/21 08:14:06;;;;;;;35.60;17.50;;;;;;;5.59;40.58;101401.52;105856;1273;113231;-73
2022/03/21 08:16:34;;;;;;;33.90;16.20;;;;;;;5.87;40.62;101399.14;106021;1273;99322;-71
2022/03/21 08:19:04;;;;;;;37.30;17.60;;;;;;;6.19;40.72;101394.26;105893;1274;106740;-71
2022/03/21 08:21:32;;;;;;;32.40;16.70;;;;;;;6.51;40.71;101394.92;105972;1273;97259;-70
2022/03/21 08:24:00;;;;;;;32.00;16.80;;;;;;;6.83;40.59;101390.63;106114;1273;99299;-70
2022/03/21 08:26:32;;;;;;;29.50;15.60;;;;;;;7.16;40.58;101387.64;106080;1273;112829;-70
2022/03/21 08:28:59;;;;;;;29.20;15.30;;;;;;;7.53;40.73;101390.18;105995;1273;97939;-70
2022/03/21 08:31:28;;;;;;;32.20;17.40;;;;;;;7.86;40.39;101389.08;106082;1274;108507;-68
2022/03/21 08:33:56;;;;;;;26.10;12.80;;;;;;;8.16;40.49;101384.80;105997;1274;100066;-71
2022/03/21 08:36:24;;;;;;;26.00;13.00;;;;;;;8.46;40.59;101386.52;105957;1274;99287;-72
2022/03/21 08:38:52;;;;;;;27.60;12.60;;;;;;;8.77;40.50;101382.35;105997;1274;111711;-68
2022/03/21 08:41:21;;;;;;;25.20;12.60;;;;;;;9.24;40.40;101381.16;105905;1274;98129;-70
2022/03/21 08:43:50;;;;;;;25.80;12.70;;;;;;;10.40;40.40;101373.89;105949;1274;107408;-70
2022/03/21 08:46:19;;;;;;;25.30;11.60;;;;;;;11.74;40.48;101370.13;106008;1274;99193;-68
2022/03/21 08:51:55;;;;;;;24.80;13.30;;;;;;;14.52;40.26;101363.75;106100;1274;113464;-70
2022/03/21 08:54:23;;;;;;;30.10;13.90;;;;;;;15.58;40.26;101362.13;106090;1274;96546;-72
2022/03/21 08:56:52;;;;;;;27.40;14.80;;;;;;;16.60;39.99;101362.44;106003;1273;107685;-71
2022/03/21 08:59:20;;;;;;;30.30;16.90;;;;;;;17.62;40.03;101358.69;105921;1273;99292;-71
2022/03/21 09:01:48;;;;;;;30.00;15.30;;;;;;;18.53;40.12;101352.27;105904;1274;96662;-71
2022/03/21 09:04:17;;;;;;;31.70;17.20;;;;;;;19.15;39.89;101350.80;105859;1274;112639;-67
2022/03/21 09:06:46;;;;;;;28.90;16.00;;;;;;;19.53;39.86;101356.86;105932;1274;97827;-69
2022/03/21 09:09:15;;;;;;;29.90;16.70;;;;;;;19.55;39.40;101357.46;106039;1274;108170;-69
2022/03/21 09:11:44;;;;;;;30.10;15.10;;;;;;;19.57;39.41;101357.66;105940;1274;99251;-71
2022/03/21 09:14:14;;;;;;;20.60;11.00;;;;;;;19.67;39.55;101356.00;105964;1273;99288;-70
2022/03/21 09:16:42;;;;;;;22.80;11.00;;;;;;;19.70;39.09;101355.11;105974;1274;112732;-71
2022/03/21 09:19:11;;;;;;;20.70;10.10;;;;;;;19.66;39.12;101351.42;105978;1274;97078;-71
2022/03/21 09:21:40;;;;;;;23.30;11.40;;;;;;;19.26;38.35;101352.34;105903;1274;105716;-72
2022/03/21 09:24:07;;;;;;;23.60;11.60;;;;;;;19.01;38.23;101352.16;105880;1274;97300;-70
2022/03/21 09:26:37;;;;;;;20.80;11.00;;;;;;;19.06;38.18;101353.08;105873;1274;99317;-71
2022/03/21 09:29:11;;;;;;;19.60;10.20;;;;;;;19.21;38.39;101352.93;105992;1274;113305;-73
2022/03/21 09:31:40;;;;;;;20.30;10.30;;;;;;;19.29;38.25;101348.03;105954;1274;98763;-70
2022/03/21 09:34:11;;;;;;;19.80;9.80;;;;;;;19.40;38.16;101347.95;105917;1274;107617;-69
2022/03/21 09:36:40;;;;;;;20.40;10.40;;;;;;;19.51;37.74;101352.38;105915;1274;99953;-70
2022/03/21 09:39:09;;;;;;;21.70;11.20;;;;;;;19.61;37.54;101346.36;105996;1274;99298;-70
2022/03/21 09:41:38;;;;;;;20.00;10.30;;;;;;;19.76;36.21;101344.38;106246;1274;112936;-72
2022/03/21 09:44:09;;;;;;;19.50;9.70;;;;;;;19.61;34.46;101345.34;105976;1274;99218;-71
2022/03/21 09:46:41;;;;;;;18.60;9.40;;;;;;;19.44;33.41;101347.09;106104;1274;107847;-71
2022/03/21 09:49:15;;;;;;;20.30;9.90;;;;;;;19.10;31.05;101342.16;106081;1274;99191;-70
2022/03/21 09:51:45;;;;;;;19.50;9.50;;;;;;;18.90;33.10;101343.21;106097;1274;96741;-71
2022/03/21 09:54:15;;;;;;;20.20;10.10;;;;;;;19.17;33.54;101338.45;106160;1274;112796;-74
2022/03/21 09:56:43;;;;;;;20.00;10.60;;;;;;;19.21;33.37;101339.73;106126;1274;97262;-74
2022/03/21 09:59:10;;;;;;;21.10;10.30;;;;;;;19.25;33.33;101340.42;106056;1274;107584;-71
2022/03/21 10:01:41;;;;;;;21.30;11.40;;;;;;;19.15;33.25;101341.30;106121;1274;99326;-71
2022/03/21 10:04:11;;;;;;;21.60;11.10;;;;;;;19.04;33.36;101338.27;106142;1274;99737;-68
2022/03/21 10:06:44;;;;;;;22.70;11.40;;;;;;;18.89;32.23;101334.85;106056;1274;112957;-69
2022/03/21 10:09:15;;;;;;;20.70;11.20;;;;;;;18.40;32.51;101328.60;106038;1273;99078;-69
2022/03/21 10:11:57;;;;;;;20.30;10.50;;;;;;;18.21;32.28;101324.89;105966;1274;107890;-71
2022/03/21 10:14:32;;;;;;;21.00;10.90;;;;;;;17.99;31.58;101322.38;105908;1274;99323;-71
2022/03/21 10:17:03;;;;;;;21.90;10.80;;;;;;;17.72;32.14;101325.08;105999;1274;96864;-71
2022/03/21 10:19:53;;;;;;;21.50;11.00;;;;;;;17.69;32.21;101319.85;105918;1274;112513;-72
2022/03/21 10:22:32;;;;;;;20.80;11.00;;;;;;;17.63;30.88;101318.53;105968;1274;98322;-72
2022/03/21 10:25:09;;;;;;;23.00;11.40;;;;;;;17.42;31.36;101316.66;105922;1274;107795;-70
2022/03/21 10:27:40;;;;;;;24.20;11.70;;;;;;;17.30;31.07;101311.49;105919;1274;99244;-70
2022/03/21 10:30:22;;;;;;;22.00;10.40;;;;;;;17.22;31.28;101311.14;105955;1274;99321;-70
2022/03/21 10:32:54;;;;;;;23.80;12.20;;;;;;;17.17;30.80;101307.29;105971;1274;113537;-71
2022/03/21 10:35:29;;;;;;;23.10;12.10;;;;;;;17.16;31.01;101303.95;106053;1274;99241;-70
2022/03/21 10:38:00;;;;;;;22.40;11.40;;;;;;;17.05;30.99;101300.38;105993;1274;107723;-70
2022/03/21 10:40:42;;;;;;;23.90;11.60;;;;;;;17.01;30.84;101303.16;105971;1274;99198;-69
2022/03/21 10:43:14;;;;;;;;;;;;;;;16.97;30.14;101300.87;106124;1274;99213;-70
2022/03/21 10:45:51;;;;;;;24.50;12.80;;;;;;;16.85;30.04;101301.06;106129;1274;112223;-70
2022/03/21 10:48:32;;;;;;;22.30;12.30;;;;;;;16.62;30.17;101299.83;106056;1274;99203;-70
2022/03/21 10:51:03;;;;;;;23.70;12.80;;;;;;;16.58;30.31;101298.46;106040;1274;108698;-70
2022/03/21 10:53:39;;;;;;;29.30;14.70;;;;;;;16.50;30.08;101289.85;106087;1274;99302;-68
2022/03/21 10:56:10;;;;;;;25.40;13.60;;;;;;;16.30;30.01;101291.95;106006;1274;99239;-69
2022/03/21 10:59:06;;;;;;;25.50;13.50;;;;;;;16.13;29.91;101292.09;106135;1274;112907;-72
2022/03/21 11:01:36;;;;;;;29.70;15.20;;;;;;;16.15;29.78;101288.58;106077;1272;99211;-71
2022/03/21 11:04:06;;;;;;;25.20;13.10;;;;;;;16.22;29.90;101280.80;106030;1274;107905;-69
2022/03/21 11:06:35;;;;;;;25.30;13.10;;;;;;;16.33;29.61;101280.48;106010;1274;99323;-70
2022/03/21 11:09:05;;;;;;;26.70;13.40;;;;;;;16.41;29.78;101276.77;105954;1274;99391;-67
2022/03/21 11:11:36;;;;;;;27.00;13.40;;;;;;;16.30;29.10;101271.87;106106;1274;114084;-69
2022/03/21 11:14:05;;;;;;;25.40;12.90;;;;;;;16.16;29.42;101265.39;106074;1274;97793;-65
2022/03/21 11:16:37;;;;;;;24.80;12.70;;;;;;;16.16;29.20;101262.20;105940;1274;108363;-66
2022/03/21 11:19:09;;;;;;;25.00;12.90;;;;;;;16.18;29.42;101261.86;106070;1273;99391;-70
2022/03/21 11:21:37;;;;;;;23.30;12.50;;;;;;;16.10;29.18;101264.31;106065;1273;99317;-68
2022/03/21 11:24:12;;;;;;;26.40;13.40;;;;;;;15.89;28.75;101261.64;106058;1274;112769;-69
2022/03/21 11:26:54;;;;;;;26.40;13.70;;;;;;;15.86;29.23;101261.67;105974;1274;96532;-71
2022/03/21 11:29:47;;;;;;;28.70;15.00;;;;;;;16.00;29.04;101259.91;106022;1274;107759;-71
2022/03/21 11:32:54;;;;;;;27.90;14.40;;;;;;;16.06;29.07;101251.84;105919;1274;99099;-69